Time;durP1;ratioP1;P1;durP2;ratioP2;P2;SDS_P1;SDS_P2;PMS_P1;PMS_P2;Temp;Humidity;BMP_temperature;BMP_pressure;BME280_temperature;BME280_humidity;BME280_pressure;Samples;Min_cycle;Max_cycle;Signal;HPM_P1;HPM_P2
2022/12/23 00:01:24;;;;;;;80.70;45.47;;;8.20;99.90;;;;;;5086132;28;20118;-79
2022/12/23 00:03:50;;;;;;;77.93;45.63;;;8.20;99.90;;;;;;5100085;27;20051;-79
2022/12/23 00:06:17;;;;;;;91.32;45.03;;;8.20;99.90;;;;;;5086736;28;20052;-79
2022/12/23 00:08:43;;;;;;;113.45;48.97;;;8.10;99.90;;;;;;5084910;28;20050;-79
2022/12/23 00:11:18;;;;;;;84.45;45.25;;;8.30;99.90;;;;;;5088001;28;20032;-79
2022/12/23 00:16:28;;;;;;;117.50;46.90;;;8.20;99.90;;;;;;5085218;28;20135;-79
2022/12/23 00:18:54;;;;;;;75.82;41.72;;;8.20;99.90;;;;;;5066428;28;20127;-79
2022/12/23 00:21:20;;;;;;;72.20;40.30;;;8.30;99.90;;;;;;5066657;28;20126;-79
2022/12/23 00:23:48;;;;;;;75.38;40.65;;;8.20;99.90;;;;;;5068068;28;20101;-80
2022/12/23 00:26:24;;;;;;;77.43;41.33;;;8.20;99.90;;;;;;5087336;28;20055;-79
2022/12/23 00:28:51;;;;;;;66.32;38.28;;;8.20;99.90;;;;;;5085404;28;20051;-79
2022/12/23 00:31:17;;;;;;;81.80;39.65;;;8.30;99.90;;;;;;5087574;28;20075;-79
2022/12/23 00:33:45;;;;;;;75.47;39.92;;;8.20;99.90;;;;;;5085533;28;20040;-79
2022/12/23 00:36:22;;;;;;;120.82;41.10;;;8.30;99.90;;;;;;5085090;28;20111;-79
2022/12/23 00:44:17;;;;;;;125.32;41.35;;;8.30;99.90;;;;;;5099858;28;20044;-80
2022/12/23 00:46:43;;;;;;;75.20;37.47;;;8.30;99.90;;;;;;5084840;28;20043;-79
2022/12/23 00:51:56;;;;;;;100.13;37.90;;;8.40;99.90;;;;;;5086437;28;20048;-79
2022/12/23 00:54:22;;;;;;;75.95;36.35;;;8.30;99.90;;;;;;5087298;28;20039;-80
2022/12/23 00:56:47;;;;;;;91.57;35.28;;;8.40;99.90;;;;;;5067363;28;20055;-79
2022/12/23 00:59:13;;;;;;;94.93;35.15;;;8.30;99.90;;;;;;5087399;28;20123;-79
2022/12/23 01:07:08;;;;;;;78.93;33.03;;;8.40;99.90;;;;;;5068348;28;20080;-80
2022/12/23 01:09:34;;;;;;;86.80;34.35;;;8.40;99.90;;;;;;5086092;28;20240;-80
2022/12/23 01:12:00;;;;;;;83.60;32.67;;;8.40;99.90;;;;;;5086960;28;20044;-80
2022/12/23 01:14:26;;;;;;;86.85;33.72;;;8.40;99.90;;;;;;5084164;28;20036;-80
2022/12/23 01:16:52;;;;;;;77.85;31.95;;;8.50;99.90;;;;;;5067693;28;20044;-80
2022/12/23 01:19:17;;;;;;;72.03;32.30;;;8.50;99.90;;;;;;5085441;28;20047;-80
2022/12/23 01:21:43;;;;;;;63.70;28.88;;;8.50;99.90;;;;;;5099047;28;20124;-80
2022/12/23 01:24:09;;;;;;;61.58;29.45;;;8.50;99.90;;;;;;5064178;28;20044;-80
2022/12/23 01:26:34;;;;;;;66.35;28.88;;;8.40;99.90;;;;;;5087349;28;20488;-79
2022/12/23 01:29:00;;;;;;;52.33;27.38;;;8.40;99.90;;;;;;5066726;28;20479;-80
2022/12/23 01:31:27;;;;;;;58.30;28.23;;;8.50;99.90;;;;;;5084674;28;20040;-80
2022/12/23 01:33:53;;;;;;;57.85;27.33;;;8.50;99.90;;;;;;5085041;28;20040;-80
2022/12/23 01:36:20;;;;;;;48.10;25.75;;;8.40;99.90;;;;;;5067878;28;20070;-80
2022/12/23 01:38:45;;;;;;;51.10;24.90;;;8.50;99.90;;;;;;5084317;28;20044;-80
2022/12/23 01:44:48;;;;;;;54.40;25.25;;;8.50;99.90;;;;;;5094307;28;20376;-80
2022/12/23 01:47:26;;;;;;;43.17;22.80;;;8.40;99.90;;;;;;5072603;28;20047;-80
2022/12/23 01:50:13;;;;;;;35.90;21.15;;;8.40;99.90;;;;;;5084899;28;20193;-79
2022/12/23 01:52:58;;;;;;;30.90;18.98;;;8.40;99.90;;;;;;5086482;28;20051;-83
2022/12/23 01:55:27;;;;;;;39.63;20.48;;;8.40;99.90;;;;;;5088749;28;20115;-83
2022/12/23 01:57:59;;;;;;;33.42;18.77;;;8.40;99.90;;;;;;5098567;27;20541;-84
2022/12/23 02:09:15;;;;;;;33.60;19.00;;;8.50;99.90;;;;;;5081774;28;20044;-83
2022/12/23 02:11:22;;;;;;;40.90;20.98;;;8.50;99.90;;;;;;5068846;28;20075;-82
2022/12/23 02:17:16;;;;;;;31.15;19.02;;;8.50;99.90;;;;;;5087896;28;20428;-82
2022/12/23 02:20:00;;;;;;;34.17;19.77;;;8.50;99.90;;;;;;5087866;28;20135;-83
2022/12/23 02:22:34;;;;;;;33.83;19.65;;;8.50;99.90;;;;;;5070386;28;20702;-83
2022/12/23 02:25:24;;;;;;;30.73;18.35;;;8.40;99.90;;;;;;5066777;28;20041;-83
2022/12/23 02:28:14;;;;;;;35.65;20.42;;;8.40;99.90;;;;;;5086637;28;20044;-83
2022/12/23 02:30:52;;;;;;;39.30;21.33;;;8.50;99.90;;;;;;5086428;28;20131;-83
2022/12/23 02:33:38;;;;;;;36.75;20.77;;;8.50;99.90;;;;;;5074334;28;20119;-83
2022/12/23 02:36:10;;;;;;;33.20;19.47;;;8.50;99.90;;;;;;5069929;28;20067;-83
2022/12/23 02:39:17;;;;;;;35.25;20.25;;;8.40;99.90;;;;;;5070344;28;20510;-82
2022/12/23 02:41:56;;;;;;;37.15;20.23;;;8.50;99.90;;;;;;5059132;28;20420;-81
2022/12/23 02:44:24;;;;;;;38.55;20.80;;;8.40;99.90;;;;;;5089217;28;20111;-81
2022/12/23 02:47:13;;;;;;;35.92;21.08;;;8.50;99.90;;;;;;5066662;28;20052;-81
2022/12/23 02:49:44;;;;;;;40.13;21.63;;;8.50;99.90;;;;;;5075583;28;20095;-81
2022/12/23 02:52:13;;;;;;;38.85;20.85;;;8.40;99.90;;;;;;5069145;28;20127;-81
2022/12/23 02:54:49;;;;;;;39.80;21.50;;;8.40;99.90;;;;;;5089099;28;20079;-81
2022/12/23 02:57:20;;;;;;;41.60;22.08;;;8.40;99.90;;;;;;5104351;27;20466;-81
2022/12/23 02:59:49;;;;;;;54.40;23.77;;;8.40;99.90;;;;;;5089861;28;20082;-82
2022/12/23 03:02:15;;;;;;;43.92;23.38;;;8.40;99.90;;;;;;5084764;28;20047;-81
2022/12/23 03:04:41;;;;;;;56.63;27.90;;;8.40;99.90;;;;;;5087027;28;20040;-82
2022/12/23 03:07:15;;;;;;;45.67;26.73;;;8.40;99.90;;;;;;5084217;28;20051;-81
2022/12/23 03:09:53;;;;;;;49.42;27.77;;;8.40;99.90;;;;;;5087992;28;20051;-82
2022/12/23 03:12:30;;;;;;;53.67;27.75;;;8.30;99.90;;;;;;5066127;28;20361;-81
2022/12/23 03:15:16;;;;;;;46.72;26.98;;;8.30;99.90;;;;;;5086459;28;20476;-82
2022/12/23 03:18:01;;;;;;;40.43;25.43;;;8.30;99.90;;;;;;5086952;28;20125;-82
2022/12/23 03:20:38;;;;;;;44.40;26.45;;;8.30;99.90;;;;;;5066501;28;20044;-81
2022/12/23 03:23:25;;;;;;;41.25;26.55;;;8.30;99.90;;;;;;5086803;28;20052;-82
2022/12/23 03:26:25;;;;;;;45.78;28.05;;;8.20;99.90;;;;;;5088367;28;20048;-81
2022/12/23 03:28:54;;;;;;;44.70;26.92;;;8.20;99.90;;;;;;5068868;28;20048;-82
2022/12/23 03:31:25;;;;;;;42.40;28.42;;;8.20;99.90;;;;;;5081241;28;20047;-81
2022/12/23 03:34:09;;;;;;;53.65;31.17;;;8.20;99.90;;;;;;5084050;28;20040;-82
2022/12/23 03:36:40;;;;;;;50.75;31.35;;;8.20;99.90;;;;;;5071417;28;20086;-82
2022/12/23 03:39:10;;;;;;;56.45;29.92;;;8.20;99.90;;;;;;5102751;28;20039;-81
2022/12/23 03:41:41;;;;;;;44.45;29.48;;;8.20;99.90;;;;;;5088226;28;20051;-82
2022/12/23 03:44:27;;;;;;;48.80;29.73;;;8.20;99.90;;;;;;5068369;28;20089;-82
2022/12/23 03:47:10;;;;;;;43.10;27.35;;;8.20;99.90;;;;;;5088048;28;20040;-82
2022/12/23 03:49:40;;;;;;;40.33;25.40;;;8.10;99.90;;;;;;5087145;28;20067;-83
2022/12/23 03:52:18;;;;;;;39.22;25.33;;;8.20;99.90;;;;;;5051690;28;20086;-82
2022/12/23 03:54:53;;;;;;;38.33;25.23;;;8.20;99.90;;;;;;5082740;28;20036;-82
2022/12/23 03:57:21;;;;;;;42.72;24.83;;;8.20;99.90;;;;;;5087249;28;20066;-83
2022/12/23 03:59:52;;;;;;;43.97;25.00;;;8.10;99.90;;;;;;5086260;28;20064;-83
2022/12/23 04:02:39;;;;;;;45.28;24.98;;;8.10;99.90;;;;;;5069202;28;20051;-83
2022/12/23 04:05:18;;;;;;;41.40;24.23;;;8.10;99.90;;;;;;5100341;28;20050;-83
2022/12/23 04:07:50;;;;;;;38.88;24.80;;;8.10;99.90;;;;;;5087112;28;20050;-83
2022/12/23 04:10:16;;;;;;;37.92;22.73;;;8.10;99.90;;;;;;5086189;28;20075;-81
2022/12/23 04:12:43;;;;;;;34.30;22.52;;;8.10;99.90;;;;;;5087353;28;20395;-81
2022/12/23 04:15:09;;;;;;;34.75;22.17;;;8.10;99.90;;;;;;5085595;28;20093;-81
2022/12/23 04:17:35;;;;;;;33.92;21.17;;;8.10;99.90;;;;;;5103120;28;20047;-81
2022/12/23 04:20:00;;;;;;;35.30;21.67;;;8.10;99.90;;;;;;5082456;28;20107;-81
2022/12/23 04:22:26;;;;;;;33.45;20.75;;;8.00;99.90;;;;;;5065689;28;20078;-80
2022/12/23 04:24:52;;;;;;;33.53;21.00;;;8.00;99.90;;;;;;5068865;28;20386;-81
2022/12/23 04:27:17;;;;;;;35.20;22.00;;;8.00;99.90;;;;;;5087179;28;20443;-81
2022/12/23 04:29:43;;;;;;;42.85;23.52;;;8.10;99.90;;;;;;5085048;28;20585;-81
2022/12/23 04:32:09;;;;;;;42.88;22.85;;;7.90;99.90;;;;;;5086398;28;20036;-81
2022/12/23 04:34:35;;;;;;;41.30;23.00;;;8.00;99.90;;;;;;5067115;28;20139;-80
2022/12/23 04:37:01;;;;;;;42.53;23.27;;;8.10;99.90;;;;;;5087946;28;20119;-81
2022/12/23 04:39:26;;;;;;;52.17;23.75;;;8.00;99.90;;;;;;5066593;28;20054;-81
2022/12/23 04:41:52;;;;;;;54.78;22.67;;;8.00;99.90;;;;;;5085443;28;20032;-81
2022/12/23 04:44:18;;;;;;;66.50;25.05;;;8.10;99.90;;;;;;5064487;28;20086;-81
2022/12/23 04:46:43;;;;;;;58.55;23.85;;;8.10;99.90;;;;;;5085071;28;20090;-81
2022/12/23 04:49:09;;;;;;;70.95;26.20;;;8.00;99.90;;;;;;5085677;28;20032;-81
2022/12/23 04:51:35;;;;;;;65.55;24.63;;;8.00;99.90;;;;;;5044860;28;20412;-81
2022/12/23 04:54:00;;;;;;;67.13;24.30;;;8.00;99.90;;;;;;5045499;28;20043;-81
2022/12/23 04:56:26;;;;;;;59.97;23.48;;;8.00;99.90;;;;;;5042472;28;20514;-81
2022/12/23 04:58:52;;;;;;;79.55;26.50;;;8.00;99.90;;;;;;5044431;28;20079;-81
2022/12/23 05:01:17;;;;;;;61.53;24.38;;;8.00;99.90;;;;;;5040951;28;20136;-79
2022/12/23 05:03:43;;;;;;;72.95;26.27;;;8.00;99.90;;;;;;5043117;28;20142;-81
2022/12/23 05:06:09;;;;;;;88.60;26.85;;;8.00;99.90;;;;;;5047333;28;20037;-81
2022/12/23 05:08:34;;;;;;;84.35;26.63;;;8.00;99.90;;;;;;5046113;28;20448;-81
2022/12/23 05:11:00;;;;;;;74.07;26.48;;;8.00;99.90;;;;;;5039713;28;20064;-81
2022/12/23 05:13:26;;;;;;;78.78;26.75;;;8.00;99.90;;;;;;5044961;28;20044;-81
2022/12/23 05:15:53;;;;;;;66.97;26.63;;;8.00;99.90;;;;;;5025753;28;20038;-81
2022/12/23 05:18:19;;;;;;;62.05;25.83;;;8.00;99.90;;;;;;5035381;28;20099;-81
2022/12/23 05:20:45;;;;;;;70.35;27.77;;;7.90;99.90;;;;;;5044332;28;20097;-81
2022/12/23 05:23:11;;;;;;;77.45;29.10;;;8.00;99.90;;;;;;5046874;28;20072;-81
2022/12/23 05:25:37;;;;;;;77.30;28.42;;;8.00;99.90;;;;;;5045300;28;20037;-81
2022/12/23 05:28:04;;;;;;;70.20;27.05;;;8.10;99.90;;;;;;5034658;28;20041;-81
2022/12/23 05:30:29;;;;;;;62.60;25.70;;;8.00;99.90;;;;;;5043179;28;20189;-80
2022/12/23 05:32:56;;;;;;;66.95;29.25;;;8.00;99.90;;;;;;5047489;28;20041;-81
2022/12/23 05:35:24;;;;;;;71.90;30.10;;;8.00;99.90;;;;;;5049479;28;20040;-81
2022/12/23 05:37:50;;;;;;;64.72;27.90;;;8.00;99.90;;;;;;5048729;28;20072;-81
2022/12/23 05:40:16;;;;;;;74.07;29.30;;;7.90;99.90;;;;;;5046676;28;20491;-81
2022/12/23 05:42:42;;;;;;;84.85;29.23;;;8.00;99.90;;;;;;5049772;28;20075;-81
2022/12/23 05:45:08;;;;;;;72.40;30.02;;;8.00;99.90;;;;;;5050209;28;20073;-81
2022/12/23 05:47:33;;;;;;;96.28;30.60;;;7.90;99.90;;;;;;5047526;28;20136;-80
2022/12/23 05:49:59;;;;;;;111.13;32.25;;;7.90;99.90;;;;;;5057939;28;20056;-80
2022/12/23 05:52:25;;;;;;;187.43;33.22;;;7.90;99.90;;;;;;5088704;28;20047;-81
2022/12/23 05:54:50;;;;;;;145.30;33.50;;;7.80;99.90;;;;;;5090651;28;20439;-81
2022/12/23 05:57:16;;;;;;;184.23;32.95;;;7.80;99.90;;;;;;5089257;28;20035;-81
2022/12/23 05:59:42;;;;;;;200.05;36.53;;;7.80;99.90;;;;;;5069153;28;20074;-81
2022/12/23 06:02:07;;;;;;;280.27;35.25;;;7.80;99.90;;;;;;5087717;28;20071;-81
2022/12/23 06:04:33;;;;;;;82.20;30.33;;;7.80;99.90;;;;;;5090111;28;20527;-81
2022/12/23 06:06:59;;;;;;;166.40;30.83;;;7.80;99.90;;;;;;5072223;28;20246;-81
2022/12/23 06:09:24;;;;;;;240.57;32.50;;;7.80;99.90;;;;;;5090140;28;20048;-82
2022/12/23 06:11:50;;;;;;;135.40;28.92;;;7.80;99.90;;;;;;5064718;28;20051;-81
2022/12/23 06:14:15;;;;;;;240.85;32.55;;;7.80;99.90;;;;;;5087117;28;20040;-81
2022/12/23 06:16:41;;;;;;;157.50;30.67;;;7.80;99.90;;;;;;5090231;28;20458;-81
2022/12/23 06:19:07;;;;;;;91.25;30.42;;;7.80;99.90;;;;;;5089671;28;20051;-81
2022/12/23 06:21:33;;;;;;;84.70;29.60;;;7.80;99.90;;;;;;5088245;28;20115;-81
2022/12/23 06:23:58;;;;;;;254.98;32.78;;;7.80;99.90;;;;;;5089059;28;20043;-81
2022/12/23 06:26:25;;;;;;;79.07;26.88;;;7.90;99.90;;;;;;5065483;28;20321;-81
2022/12/23 06:28:50;;;;;;;101.20;29.20;;;7.80;99.90;;;;;;5087841;28;20039;-81
2022/12/23 06:31:16;;;;;;;128.90;29.60;;;7.80;99.90;;;;;;5068682;28;20411;-79
2022/12/23 06:33:42;;;;;;;83.40;26.45;;;7.80;99.90;;;;;;5066505;28;20128;-82
2022/12/23 06:36:08;;;;;;;129.80;27.73;;;7.80;99.90;;;;;;5065836;28;20058;-81
2022/12/23 06:38:34;;;;;;;122.78;27.75;;;7.80;99.90;;;;;;5068477;28;20043;-81
2022/12/23 06:41:00;;;;;;;109.85;26.77;;;7.90;99.90;;;;;;5087459;28;20044;-80
2022/12/23 06:43:27;;;;;;;103.57;25.13;;;7.80;99.90;;;;;;5063979;28;20048;-81
2022/12/23 06:45:52;;;;;;;183.38;27.05;;;7.80;99.90;;;;;;5088997;28;20372;-82
2022/12/23 06:48:19;;;;;;;145.88;26.05;;;7.80;99.90;;;;;;5083682;28;20045;-80
2022/12/23 06:50:45;;;;;;;129.40;26.73;;;7.80;99.90;;;;;;5069920;28;20056;-80
2022/12/23 06:53:12;;;;;;;164.07;25.90;;;7.80;99.90;;;;;;5070917;28;20043;-80
2022/12/23 06:55:38;;;;;;;285.27;33.33;;;7.80;99.90;;;;;;5086179;28;20040;-80
2022/12/23 06:58:04;;;;;;;114.68;25.60;;;7.80;99.90;;;;;;5070743;28;20048;-80
2022/12/23 07:00:30;;;;;;;169.68;26.80;;;7.80;99.90;;;;;;5085524;28;20099;-80
2022/12/23 07:02:56;;;;;;;74.88;25.75;;;7.80;99.90;;;;;;5064882;28;20075;-80
2022/12/23 07:05:23;;;;;;;94.63;28.15;;;7.70;99.90;;;;;;5087282;28;20051;-80
2022/12/23 07:07:48;;;;;;;116.83;26.83;;;7.80;99.90;;;;;;5089271;28;20153;-80
2022/12/23 07:10:14;;;;;;;198.73;28.58;;;7.80;99.90;;;;;;5069855;28;20515;-80
2022/12/23 07:12:42;;;;;;;197.40;30.35;;;7.90;99.90;;;;;;5063613;28;20048;-81
2022/12/23 07:15:08;;;;;;;254.65;28.75;;;7.80;99.90;;;;;;5066584;28;20040;-80
2022/12/23 07:17:34;;;;;;;182.82;29.38;;;7.80;99.90;;;;;;5082981;28;20072;-79
2022/12/23 07:20:00;;;;;;;172.45;27.98;;;7.70;99.90;;;;;;5084282;28;20182;-80
2022/12/23 07:22:25;;;;;;;206.25;29.13;;;7.90;99.90;;;;;;5087951;28;20487;-80
2022/12/23 07:24:51;;;;;;;158.70;26.35;;;7.80;99.90;;;;;;5086502;28;20047;-80
2022/12/23 07:27:17;;;;;;;163.95;25.75;;;7.80;99.90;;;;;;5071570;28;20044;-80
2022/12/23 07:29:43;;;;;;;151.27;27.73;;;7.80;99.90;;;;;;5083508;28;20059;-80
2022/12/23 07:32:09;;;;;;;95.60;25.30;;;7.80;99.90;;;;;;5089671;28;20153;-80
2022/12/23 07:34:38;;;;;;;105.82;23.65;;;7.80;99.90;;;;;;5075742;28;20055;-79
2022/12/23 07:37:04;;;;;;;85.10;24.92;;;7.80;99.90;;;;;;5059694;28;20126;-80
2022/12/23 07:39:30;;;;;;;148.48;28.05;;;7.80;99.90;;;;;;5083614;28;20056;-80
2022/12/23 07:41:56;;;;;;;88.68;25.63;;;7.80;99.90;;;;;;5086799;28;20044;-79
2022/12/23 07:44:21;;;;;;;113.18;26.02;;;7.80;99.90;;;;;;5080012;28;20339;-79
2022/12/23 07:46:47;;;;;;;128.20;26.52;;;7.80;99.90;;;;;;5063063;28;20055;-79
2022/12/23 07:49:13;;;;;;;193.20;29.25;;;7.80;99.90;;;;;;5085414;28;20506;-80
2022/12/23 07:51:39;;;;;;;244.30;29.67;;;7.80;99.90;;;;;;5087093;28;20096;-79
2022/12/23 07:54:05;;;;;;;232.80;27.60;;;7.80;99.90;;;;;;5063371;28;20067;-79
2022/12/23 07:56:30;;;;;;;114.38;28.50;;;7.70;99.90;;;;;;5059446;28;20449;-79
2022/12/23 07:58:57;;;;;;;234.77;27.55;;;7.70;99.90;;;;;;5067061;28;20558;-79
2022/12/23 08:01:22;;;;;;;110.18;27.00;;;7.70;99.90;;;;;;5062906;28;20184;-81
2022/12/23 08:03:48;;;;;;;249.38;29.48;;;7.70;99.90;;;;;;5066453;28;20105;-80
2022/12/23 08:06:15;;;;;;;320.75;32.33;;;7.70;99.90;;;;;;5062214;28;20044;-82
2022/12/23 08:08:43;;;;;;;406.33;33.92;;;7.70;99.90;;;;;;5086061;28;20051;-80
2022/12/23 08:11:11;;;;;;;167.55;28.25;;;7.70;99.90;;;;;;5075970;28;20036;-83
2022/12/23 08:13:37;;;;;;;;;;;7.70;99.90;;;;;;5074021;28;20048;-79
2022/12/23 08:16:04;;;;;;;217.87;30.10;;;7.70;99.90;;;;;;5102560;28;20375;-81
2022/12/23 08:18:32;;;;;;;277.95;31.50;;;7.70;99.90;;;;;;5086727;28;20351;-80
2022/12/23 08:21:00;;;;;;;211.30;30.15;;;7.70;99.90;;;;;;5063069;28;20075;-82
2022/12/23 08:23:28;;;;;;;174.77;27.63;;;7.60;99.90;;;;;;5069041;28;20048;-82
2022/12/23 08:26:00;;;;;;;;;;;7.60;99.90;;;;;;5082617;28;20039;-79
2022/12/23 08:28:26;;;;;;;148.60;24.55;;;7.70;99.90;;;;;;5070035;28;19919;-81
2022/12/23 08:30:52;;;;;;;125.15;25.85;;;7.70;99.90;;;;;;5069714;28;20051;-81
2022/12/23 08:33:18;;;;;;;178.25;29.17;;;7.70;99.90;;;;;;5085180;28;20571;-81
2022/12/23 08:35:43;;;;;;;115.38;26.80;;;7.60;99.90;;;;;;5064767;28;20066;-81
2022/12/23 08:38:09;;;;;;;108.25;26.50;;;7.60;99.90;;;;;;5068523;28;20135;-80
2022/12/23 08:40:37;;;;;;;83.28;24.88;;;7.70;99.90;;;;;;5066241;28;20725;-80
2022/12/23 08:43:03;;;;;;;92.90;24.48;;;7.70;99.90;;;;;;5103104;28;20407;-80
2022/12/23 08:45:29;;;;;;;83.35;24.67;;;7.70;99.90;;;;;;5068950;28;20036;-79
2022/12/23 08:47:54;;;;;;;187.60;27.67;;;7.70;99.90;;;;;;5067848;28;20051;-79
2022/12/23 08:50:20;;;;;;;83.88;23.30;;;7.70;99.90;;;;;;5086412;28;20052;-78
2022/12/23 08:52:46;;;;;;;78.70;22.48;;;7.70;99.90;;;;;;5068688;28;20404;-84
2022/12/23 08:55:11;;;;;;;174.50;25.90;;;7.70;99.90;;;;;;5083273;28;20412;-80
2022/12/23 08:57:37;;;;;;;117.72;25.02;;;7.70;99.90;;;;;;5083577;28;20090;-77
2022/12/23 09:00:03;;;;;;;61.00;22.75;;;7.70;99.90;;;;;;5087451;28;20036;-76
2022/12/23 09:02:29;;;;;;;178.70;23.85;;;7.70;99.90;;;;;;5087015;28;20048;-76
2022/12/23 09:04:54;;;;;;;68.20;21.55;;;7.80;99.90;;;;;;5068381;28;20044;-77
2022/12/23 09:07:20;;;;;;;53.58;20.45;;;7.70;99.90;;;;;;5081813;28;20393;-75
2022/12/23 09:09:46;;;;;;;59.13;21.30;;;7.70;99.90;;;;;;5085929;28;20078;-77
2022/12/23 09:12:12;;;;;;;43.63;20.33;;;7.70;99.90;;;;;;5087748;28;20131;-77
2022/12/23 09:14:37;;;;;;;56.80;20.90;;;7.70;99.90;;;;;;5084999;28;20043;-76
2022/12/23 09:17:03;;;;;;;44.50;21.05;;;7.80;99.90;;;;;;5087198;28;20040;-79
2022/12/23 09:19:28;;;;;;;74.90;22.58;;;7.80;99.90;;;;;;5066622;28;20131;-76
2022/12/23 09:21:54;;;;;;;46.40;20.38;;;7.80;99.90;;;;;;5067238;28;20044;-76
2022/12/23 09:24:20;;;;;;;58.75;22.35;;;7.70;99.90;;;;;;5087507;28;20044;-76
2022/12/23 09:26:45;;;;;;;46.28;22.27;;;7.80;99.90;;;;;;5087608;28;20048;-78
2022/12/23 09:29:11;;;;;;;49.03;22.05;;;7.80;99.90;;;;;;5088154;28;20036;-78
2022/12/23 09:31:37;;;;;;;66.40;21.60;;;7.80;99.90;;;;;;5069810;28;20032;-78
2022/12/23 09:34:03;;;;;;;104.22;23.73;;;7.80;99.90;;;;;;5068407;28;20113;-80
2022/12/23 09:36:28;;;;;;;44.85;20.70;;;7.90;99.90;;;;;;5064489;28;20448;-77
2022/12/23 09:38:55;;;;;;;58.53;22.48;;;7.90;99.90;;;;;;5085620;28;20040;-76
2022/12/23 09:41:39;;;;;;;73.88;22.92;;;7.90;99.90;;;;;;5099025;28;20036;-77
2022/12/23 09:44:13;;;;;;;54.72;20.38;;;7.90;99.90;;;;;;5062194;28;20298;-80
2022/12/23 09:46:48;;;;;;;39.65;19.52;;;8.00;99.90;;;;;;5069223;28;20384;-78
2022/12/23 09:49:17;;;;;;;53.50;21.02;;;7.90;99.90;;;;;;5066617;28;20543;-78
2022/12/23 09:51:44;;;;;;;38.75;19.63;;;8.00;99.90;;;;;;5084615;28;20173;-78
2022/12/23 09:54:21;;;;;;;42.20;20.70;;;8.00;99.90;;;;;;5082978;28;20063;-76
2022/12/23 09:57:01;;;;;;;43.05;21.45;;;8.00;99.90;;;;;;5069408;28;20044;-76
2022/12/23 09:59:45;;;;;;;36.28;20.33;;;8.00;99.90;;;;;;5085524;28;20052;-75
2022/12/23 10:02:30;;;;;;;46.50;20.67;;;8.00;99.90;;;;;;5065447;28;20070;-77
2022/12/23 10:05:06;;;;;;;38.72;19.42;;;8.00;99.90;;;;;;5064184;28;20032;-78
2022/12/23 10:08:02;;;;;;;31.63;18.50;;;8.00;99.90;;;;;;5085771;28;20113;-78
2022/12/23 10:10:38;;;;;;;29.58;17.02;;;8.10;99.90;;;;;;5082537;28;20056;-78
2022/12/23 10:13:09;;;;;;;25.90;15.43;;;8.00;99.90;;;;;;5083733;28;20100;-78
2022/12/23 10:15:43;;;;;;;25.95;15.50;;;8.00;99.90;;;;;;5069212;28;20048;-79
2022/12/23 10:18:43;;;;;;;32.92;17.50;;;8.00;99.90;;;;;;5090088;28;20040;-77
2022/12/23 10:21:19;;;;;;;38.10;18.45;;;8.00;99.90;;;;;;5090886;28;20040;-78
2022/12/23 10:23:49;;;;;;;43.45;20.75;;;8.10;99.90;;;;;;5068417;28;20237;-77
2022/12/23 10:26:37;;;;;;;38.85;20.20;;;8.10;99.90;;;;;;5088553;28;20464;-75
2022/12/23 10:29:23;;;;;;;36.80;20.02;;;8.20;99.90;;;;;;5090601;28;20036;-78
2022/12/23 10:32:26;;;;;;;38.40;19.05;;;8.20;99.90;;;;;;5069799;28;20040;-76
2022/12/23 10:35:25;;;;;;;30.67;17.75;;;8.20;99.90;;;;;;5062922;28;20554;-78
2022/12/23 10:37:58;;;;;;;31.88;17.02;;;8.20;99.90;;;;;;5055402;28;20159;-77
2022/12/23 10:40:45;;;;;;;32.42;18.10;;;8.20;99.90;;;;;;5087294;28;20105;-76
2022/12/23 10:43:19;;;;;;;;;;;8.30;99.90;;;;;;5071574;28;20059;-72
2022/12/23 10:46:00;;;;;;;28.67;17.27;;;8.20;99.90;;;;;;5087772;28;19923;-80
2022/12/23 10:48:44;;;;;;;28.35;16.67;;;8.20;99.90;;;;;;5054892;28;20048;-75
2022/12/23 10:51:18;;;;;;;35.42;19.55;;;8.30;99.90;;;;;;5086409;28;20151;-75
2022/12/23 10:53:54;;;;;;;39.42;20.13;;;8.30;99.90;;;;;;5061259;28;20048;-75
2022/12/23 10:56:21;;;;;;;47.28;21.20;;;8.30;99.90;;;;;;5071502;28;20040;-77
2022/12/23 10:58:51;;;;;;;39.42;20.85;;;8.30;99.90;;;;;;5085301;28;20032;-77
2022/12/23 11:01:18;;;;;;;41.65;21.20;;;8.30;99.90;;;;;;5088910;28;20097;-78
2022/12/23 11:04:05;;;;;;;40.10;21.52;;;8.30;99.90;;;;;;5087776;28;20438;-83
2022/12/23 11:06:31;;;;;;;;;;;8.40;99.90;;;;;;5086127;28;20051;-77
2022/12/23 11:09:01;;;;;;;43.53;20.67;;;8.40;99.90;;;;;;5088033;28;20521;-79
2022/12/23 11:11:52;;;;;;;39.38;19.50;;;8.40;99.90;;;;;;5089470;28;20036;-78
2022/12/23 11:14:34;;;;;;;36.42;19.60;;;8.40;99.90;;;;;;5086449;28;20046;-80
2022/12/23 11:16:59;;;;;;;41.42;20.13;;;8.40;99.90;;;;;;5097576;27;20409;-78
2022/12/23 11:19:25;;;;;;;37.58;19.90;;;8.30;99.90;;;;;;5086793;28;20044;-76
2022/12/23 11:21:59;;;;;;;43.42;20.98;;;8.50;99.90;;;;;;5066532;28;20096;-75
2022/12/23 11:24:30;;;;;;;50.60;22.13;;;8.50;99.90;;;;;;5103342;28;20263;-77
2022/12/23 11:27:02;;;;;;;50.08;23.05;;;8.50;99.90;;;;;;5066983;28;20055;-76
2022/12/23 11:29:35;;;;;;;64.25;25.65;;;8.50;99.90;;;;;;5085387;28;20055;-75
2022/12/23 11:32:13;;;;;;;58.67;22.58;;;8.50;99.90;;;;;;5088760;28;20264;-75
2022/12/23 11:34:43;;;;;;;;;;;8.50;99.90;;;;;;5071429;28;20491;-79
2022/12/23 11:37:35;;;;;;;42.75;20.58;;;8.50;99.90;;;;;;5064679;28;20500;-80
2022/12/23 11:40:04;;;;;;;48.58;22.02;;;8.50;99.90;;;;;;5066067;28;20078;-78
2022/12/23 11:42:32;;;;;;;45.33;21.00;;;8.50;99.90;;;;;;5083397;28;20040;-76
2022/12/23 11:44:59;;;;;;;53.45;22.05;;;8.50;99.90;;;;;;5061026;28;20040;-75
2022/12/23 11:47:28;;;;;;;44.92;21.25;;;8.50;99.90;;;;;;5086541;28;20140;-75
2022/12/23 11:50:19;;;;;;;45.80;21.48;;;8.50;99.90;;;;;;5077486;28;20143;-75
2022/12/23 11:53:15;;;;;;;43.70;21.48;;;8.50;99.90;;;;;;5086046;28;20199;-75
2022/12/23 11:55:54;;;;;;;38.22;20.25;;;8.50;99.90;;;;;;5055213;28;20090;-75
2022/12/23 11:58:21;;;;;;;39.78;20.08;;;8.60;99.90;;;;;;5064167;28;20055;-74
2022/12/23 12:01:14;;;;;;;35.78;18.98;;;8.50;99.90;;;;;;5068197;28;20059;-76
2022/12/23 12:03:47;;;;;;;37.17;19.90;;;8.50;99.90;;;;;;5081067;28;20078;-77
2022/12/23 12:06:15;;;;;;;45.60;23.23;;;8.50;99.90;;;;;;5079861;28;20062;-76
2022/12/23 12:08:41;;;;;;;46.15;25.20;;;8.50;99.90;;;;;;5066805;28;20151;-74
2022/12/23 12:11:13;;;;;;;47.63;26.45;;;8.50;99.90;;;;;;5079844;28;20398;-80
2022/12/23 12:13:42;;;;;;;51.83;27.90;;;8.60;99.90;;;;;;5079623;28;20047;-81
2022/12/23 12:16:13;;;;;;;57.25;29.70;;;8.50;99.90;;;;;;5089981;28;20047;-81
2022/12/23 12:18:42;;;;;;;55.15;27.92;;;8.50;99.90;;;;;;5087065;28;20082;-80
2022/12/23 12:21:19;;;;;;;51.95;27.50;;;8.50;99.90;;;;;;5086468;28;20058;-85
2022/12/23 12:23:49;;;;;;;52.20;27.58;;;8.60;99.90;;;;;;5085587;28;20040;-85
2022/12/23 12:26:33;;;;;;;48.13;26.05;;;8.60;99.90;;;;;;5088341;28;20048;-82
2022/12/23 12:29:25;;;;;;;48.53;26.63;;;8.60;99.90;;;;;;5083822;28;20050;-83
2022/12/23 12:31:54;;;;;;;46.55;25.40;;;8.60;99.90;;;;;;5080159;28;20050;-83
2022/12/23 12:34:31;;;;;;;43.20;23.65;;;8.60;99.90;;;;;;5089788;28;20031;-84
2022/12/23 12:36:57;;;;;;;;;;;8.60;99.90;;;;;;5081715;28;20044;-84
2022/12/23 12:39:40;;;;;;;41.78;22.38;;;8.60;99.90;;;;;;5069690;28;19923;-86
2022/12/23 12:42:23;;;;;;;45.72;22.52;;;8.60;99.90;;;;;;5069633;28;20039;-83
2022/12/23 12:45:04;;;;;;;44.35;21.52;;;8.60;99.90;;;;;;5088244;28;20047;-82
2022/12/23 12:47:51;;;;;;;43.35;20.45;;;8.60;99.90;;;;;;5081689;28;20437;-81
2022/12/23 12:50:22;;;;;;;41.15;21.67;;;8.60;99.90;;;;;;5102641;28;20079;-85
2022/12/23 12:52:50;;;;;;;39.28;21.17;;;8.60;99.90;;;;;;5064362;28;20152;-78
2022/12/23 12:55:30;;;;;;;39.53;21.02;;;8.50;99.90;;;;;;5084398;28;20115;-79
2022/12/23 12:57:56;;;;;;;51.58;24.15;;;8.60;99.90;;;;;;5090053;27;20036;-75
2022/12/23 13:00:23;;;;;;;51.10;25.17;;;8.50;99.90;;;;;;5083238;28;20066;-77
2022/12/23 13:03:04;;;;;;;51.47;25.88;;;8.50;99.90;;;;;;5067415;28;20377;-76
2022/12/23 13:05:51;;;;;;;56.53;27.80;;;8.60;99.90;;;;;;5084686;28;20040;-77
2022/12/23 13:08:17;;;;;;;61.60;29.67;;;8.60;99.90;;;;;;5062316;28;20044;-79
2022/12/23 13:11:04;;;;;;;60.00;28.73;;;8.50;99.90;;;;;;5085990;28;20055;-79
2022/12/23 13:13:49;;;;;;;56.15;29.85;;;8.60;99.90;;;;;;5062461;28;20113;-77
2022/12/23 13:16:43;;;;;;;55.83;28.98;;;8.50;99.90;;;;;;5063957;28;20062;-78
2022/12/23 13:19:27;;;;;;;74.47;31.67;;;8.50;99.90;;;;;;5066478;28;20048;-78
2022/12/23 13:22:07;;;;;;;69.75;30.75;;;8.50;99.90;;;;;;5062734;28;20044;-80
2022/12/23 13:25:00;;;;;;;62.92;30.52;;;8.50;99.90;;;;;;5084132;28;20123;-82
2022/12/23 13:27:35;;;;;;;67.00;32.15;;;8.50;99.90;;;;;;5065348;28;20075;-81